createdAt,value
2018-10-19T00:02:25.947Z,99.90
2018-10-19T00:07:29.016Z,99.90
2018-10-19T00:12:32.101Z,99.90
2018-10-19T00:17:35.250Z,99.90
2018-10-19T00:22:38.313Z,99.90
2018-10-19T00:27:41.384Z,99.90
2018-10-19T00:32:44.474Z,99.90
2018-10-19T00:37:47.573Z,99.90
2018-10-19T00:42:50.669Z,99.90
2018-10-19T00:47:53.815Z,99.90
2018-10-19T00:52:56.910Z,99.90
2018-10-19T00:57:59.988Z,99.90
2018-10-19T01:03:03.156Z,99.90
2018-10-19T01:08:06.821Z,99.90
2018-10-19T01:13:09.918Z,99.90
2018-10-19T01:18:13.021Z,99.90
2018-10-19T01:23:16.226Z,99.90
2018-10-19T01:28:19.251Z,99.90
2018-10-19T01:33:22.326Z,99.90
2018-10-19T01:38:25.391Z,99.90
2018-10-19T01:43:28.458Z,99.90
2018-10-19T01:48:31.570Z,99.90
2018-10-19T01:53:34.633Z,99.90
2018-10-19T01:58:37.725Z,99.90
2018-10-19T02:03:40.818Z,99.90
2018-10-19T02:08:43.914Z,99.90
2018-10-19T02:13:46.998Z,99.90
2018-10-19T02:18:50.214Z,99.90
2018-10-19T02:23:53.398Z,99.90
2018-10-19T02:28:56.576Z,99.90
2018-10-19T02:33:59.629Z,99.90
2018-10-19T02:39:03.190Z,99.90
2018-10-19T02:44:06.201Z,99.90
2018-10-19T02:49:09.362Z,99.90
2018-10-19T02:54:12.449Z,99.90
2018-10-19T02:59:15.684Z,99.90
2018-10-19T03:04:18.741Z,99.90
2018-10-19T03:09:21.828Z,99.90
2018-10-19T03:14:24.936Z,99.90
2018-10-19T03:19:28.038Z,99.90
2018-10-19T03:24:31.127Z,99.90
2018-10-19T03:29:34.242Z,99.90
2018-10-19T03:34:37.350Z,99.90
2018-10-19T03:39:40.438Z,99.90
2018-10-19T03:44:43.534Z,99.90
2018-10-19T03:49:46.632Z,99.90
2018-10-19T03:54:49.743Z,99.90
2018-10-19T03:59:52.960Z,99.90
2018-10-19T04:04:56.097Z,99.90
2018-10-19T04:09:59.150Z,99.90
2018-10-19T04:15:02.329Z,99.90
2018-10-19T04:20:05.751Z,99.90
2018-10-19T04:25:08.839Z,99.90
2018-10-19T04:30:11.929Z,99.90
2018-10-19T04:35:30.163Z,99.90
2018-10-19T04:40:39.765Z,99.90
2018-10-19T04:45:43.017Z,99.90
2018-10-19T04:50:46.236Z,99.90
2018-10-19T04:55:49.330Z,99.90
2018-10-19T05:00:52.413Z,99.90
2018-10-19T05:05:55.605Z,99.90
2018-10-19T05:10:58.711Z,99.90
2018-10-19T05:16:01.779Z,99.90
2018-10-19T05:21:04.885Z,99.90
2018-10-19T05:26:08.031Z,99.90
2018-10-19T05:31:11.097Z,99.90
2018-10-19T05:36:14.195Z,99.90
2018-10-19T05:41:17.447Z,99.90
2018-10-19T05:46:20.517Z,99.90
2018-10-19T05:51:23.603Z,99.90
2018-10-19T05:56:26.883Z,99.90
2018-10-19T06:01:36.714Z,99.90
2018-10-19T06:06:39.954Z,99.90
2018-10-19T06:11:43.100Z,99.90
2018-10-19T06:21:52.715Z,99.90
2018-10-19T06:26:55.802Z,99.90
2018-10-19T06:32:00.170Z,99.90
2018-10-19T06:37:03.314Z,99.90
2018-10-19T06:42:06.422Z,99.90
2018-10-19T06:47:09.564Z,99.90
2018-10-19T06:52:12.622Z,99.90
2018-10-19T06:57:15.808Z,99.90
2018-10-19T07:02:18.904Z,99.90
2018-10-19T07:07:28.363Z,99.90
2018-10-19T07:12:31.463Z,99.90
2018-10-19T07:17:34.553Z,99.90
2018-10-19T07:22:37.645Z,99.90
2018-10-19T07:27:40.724Z,99.90
2018-10-19T07:32:43.839Z,99.90
2018-10-19T07:37:46.929Z,99.90
2018-10-19T07:42:50.030Z,99.90
2018-10-19T07:48:05.504Z,99.90
2018-10-19T07:53:08.439Z,99.90
2018-10-19T07:58:11.530Z,99.90
2018-10-19T08:08:17.590Z,99.90
2018-10-19T08:13:20.734Z,99.90
2018-10-19T08:18:23.847Z,99.90
2018-10-19T08:23:26.962Z,99.90
2018-10-19T08:28:30.048Z,99.10
2018-10-19T08:33:33.149Z,99.60
2018-10-19T08:38:36.518Z,98.50
2018-10-19T08:43:39.641Z,98.70
2018-10-19T08:48:42.748Z,99.70
2018-10-19T08:53:45.923Z,99.90
2018-10-19T08:58:49.880Z,99.90
2018-10-19T09:03:52.989Z,99.90
2018-10-19T09:08:56.173Z,99.90
2018-10-19T09:13:59.231Z,99.90
2018-10-19T09:19:02.314Z,99.90
2018-10-19T09:24:16.809Z,99.00
2018-10-19T09:29:19.910Z,98.40
2018-10-19T09:34:23.017Z,98.10
2018-10-19T09:39:26.122Z,97.00
2018-10-19T09:44:29.210Z,96.90
2018-10-19T09:49:32.317Z,96.50
2018-10-19T09:54:35.425Z,96.10
2018-10-19T09:59:38.533Z,96.40
2018-10-19T10:04:41.639Z,96.60
2018-10-19T10:09:44.736Z,95.70
2018-10-19T10:14:47.910Z,95.70
2018-10-19T10:19:50.958Z,95.50
2018-10-19T10:24:54.105Z,95.10
2018-10-19T10:29:57.183Z,94.70
2018-10-19T10:35:00.288Z,94.30
2018-10-19T10:40:03.414Z,94.50
2018-10-19T10:45:06.616Z,93.30
2018-10-19T10:50:09.715Z,93.50
2018-10-19T10:55:12.832Z,93.70
2018-10-19T11:00:16.095Z,93.30
2018-10-19T11:05:19.193Z,93.70
2018-10-19T11:15:55.766Z,93.30
2018-10-19T11:20:58.816Z,93.40
2018-10-19T11:26:01.945Z,93.10
2018-10-19T11:31:05.373Z,93.00
2018-10-19T11:36:08.445Z,92.60
2018-10-19T11:41:11.534Z,92.50
2018-10-19T11:46:14.731Z,92.30
2018-10-19T11:51:17.771Z,92.70
2018-10-19T11:56:21.040Z,93.10
2018-10-19T12:01:24.133Z,93.00
2018-10-19T12:06:27.229Z,92.90
2018-10-19T12:11:30.325Z,92.10
2018-10-19T12:16:33.489Z,92.30
2018-10-19T12:21:43.036Z,92.50
2018-10-19T12:26:46.130Z,92.50
2018-10-19T12:31:49.260Z,91.80
2018-10-19T12:36:52.404Z,91.50
2018-10-19T12:41:55.498Z,91.60
2018-10-19T12:47:10.100Z,91.60
2018-10-19T12:52:13.211Z,91.70
2018-10-19T12:57:16.345Z,91.70
2018-10-19T13:02:19.433Z,91.60
2018-10-19T13:07:22.744Z,91.60
2018-10-19T13:12:25.847Z,91.80
2018-10-19T13:17:28.945Z,91.60
2018-10-19T13:22:32.046Z,91.30
2018-10-19T13:27:35.167Z,90.30
2018-10-19T13:32:38.287Z,90.40
2018-10-19T13:37:41.405Z,89.80
2018-10-19T13:42:44.509Z,90.40
2018-10-19T13:47:47.646Z,90.10
2018-10-19T13:52:50.744Z,90.00
2018-10-19T13:57:54.324Z,90.00
2018-10-19T14:02:58.266Z,90.10
2018-10-19T14:08:01.389Z,90.50
2018-10-19T14:13:04.502Z,90.10
2018-10-19T14:18:07.593Z,90.00
2018-10-19T14:23:10.860Z,87.90
2018-10-19T14:28:14.190Z,88.70
2018-10-19T14:33:17.429Z,89.00
2018-10-19T14:38:20.442Z,87.70
2018-10-19T14:43:23.664Z,87.00
2018-10-19T14:48:26.756Z,86.50
2018-10-19T14:53:29.866Z,86.30
2018-10-19T14:58:32.993Z,86.60
2018-10-19T15:03:36.089Z,86.10
2018-10-19T15:08:39.208Z,86.50
2018-10-19T15:13:42.355Z,86.50
2018-10-19T15:18:45.455Z,87.40
2018-10-19T15:23:48.553Z,87.30
2018-10-19T15:28:51.681Z,86.90
2018-10-19T15:33:54.773Z,87.00
2018-10-19T15:38:57.926Z,87.60
2018-10-19T15:44:01.009Z,87.80
2018-10-19T15:49:04.418Z,87.70
2018-10-19T15:54:07.539Z,88.30
2018-10-19T15:59:10.624Z,88.40
2018-10-19T16:04:13.738Z,88.60
2018-10-19T16:09:16.821Z,88.80
2018-10-19T16:14:19.938Z,88.90
2018-10-19T16:19:23.062Z,89.10
2018-10-19T16:24:26.172Z,89.60
2018-10-19T16:29:29.327Z,89.80
2018-10-19T16:34:32.474Z,90.00
2018-10-19T16:39:35.549Z,90.10
2018-10-19T16:44:38.647Z,90.00
2018-10-19T16:49:50.111Z,90.20
2018-10-19T16:54:53.216Z,90.20
2018-10-19T16:59:56.327Z,90.30
2018-10-19T17:04:59.482Z,90.30
2018-10-19T17:10:02.546Z,90.70
2018-10-19T17:15:05.838Z,90.50
2018-10-19T17:25:16.728Z,90.60
2018-10-19T17:30:19.993Z,90.80
2018-10-19T17:35:22.940Z,90.80
2018-10-19T17:40:26.060Z,90.80
2018-10-19T17:45:29.154Z,91.00
2018-10-19T17:50:32.285Z,91.10
2018-10-19T17:55:35.378Z,91.30
2018-10-19T18:00:38.502Z,91.40
2018-10-19T18:05:41.605Z,91.50
2018-10-19T18:15:47.657Z,91.70
2018-10-19T18:20:50.714Z,91.90
2018-10-19T18:25:53.857Z,92.00
2018-10-19T18:30:56.925Z,92.30
2018-10-19T18:36:03.892Z,92.60
2018-10-19T18:41:07.016Z,92.60
2018-10-19T18:46:10.124Z,92.70
2018-10-19T18:51:13.212Z,93.00
2018-10-19T18:56:16.378Z,93.90
2018-10-19T19:01:19.409Z,93.60
2018-10-19T19:06:22.602Z,93.70
2018-10-19T19:11:25.691Z,93.50
2018-10-19T19:16:29.809Z,93.70
2018-10-19T19:21:38.961Z,94.30
2018-10-19T19:26:42.366Z,94.30
2018-10-19T19:31:46.080Z,94.20
2018-10-19T19:36:49.713Z,94.10
2018-10-19T19:41:58.299Z,94.10
2018-10-19T19:47:01.912Z,94.30
2018-10-19T19:52:05.200Z,94.70
2018-10-19T19:57:08.513Z,94.60
2018-10-19T20:02:11.946Z,94.70
2018-10-19T20:07:15.106Z,94.70
2018-10-19T20:12:31.303Z,94.90
2018-10-19T20:17:34.486Z,94.90
2018-10-19T20:22:37.832Z,95.60
2018-10-19T20:27:41.417Z,95.60
2018-10-19T20:32:44.520Z,95.40
2018-10-19T20:37:47.641Z,95.10
2018-10-19T20:42:55.373Z,94.90
2018-10-19T20:47:58.529Z,95.10
2018-10-19T20:53:01.661Z,94.70
2018-10-19T20:58:04.755Z,94.60
2018-10-19T21:03:07.856Z,94.70
2018-10-19T21:08:10.997Z,94.50
2018-10-19T21:13:14.060Z,94.80
2018-10-19T21:18:17.143Z,94.10
2018-10-19T21:23:20.347Z,94.70
2018-10-19T21:28:23.436Z,94.40
2018-10-19T21:33:26.539Z,94.80
2018-10-19T21:38:29.683Z,95.00
2018-10-19T21:43:32.804Z,95.20
2018-10-19T21:48:35.930Z,95.10
2018-10-19T21:53:39.194Z,95.20
2018-10-19T21:58:42.282Z,95.00
2018-10-19T22:03:45.380Z,95.30
2018-10-19T22:08:48.478Z,95.20
2018-10-19T22:13:51.593Z,95.20
2018-10-19T22:18:54.700Z,95.20
2018-10-19T22:23:57.802Z,95.20
2018-10-19T22:29:00.963Z,95.30
2018-10-19T22:34:04.165Z,95.30
2018-10-19T22:39:07.868Z,95.40
2018-10-19T22:44:10.957Z,95.20
2018-10-19T22:49:14.354Z,95.30
2018-10-19T22:54:17.456Z,95.40
2018-10-19T22:59:20.557Z,95.50
2018-10-19T23:04:23.659Z,95.40
2018-10-19T23:15:09.039Z,95.70
2018-10-19T23:20:12.133Z,96.20
2018-10-19T23:25:15.285Z,96.10
2018-10-19T23:30:18.341Z,96.20
2018-10-19T23:35:21.464Z,96.60
2018-10-19T23:40:24.563Z,96.50
2018-10-19T23:45:27.664Z,96.50
2018-10-19T23:50:30.762Z,97.00
2018-10-19T23:55:33.894Z,96.60
